sensor_id;sensor_type;location;lat;lon;timestamp;pressure;altitude;pressure_sealevel;temperature;humidity
73862;BME280;63459;51.456;-0.916;2023-06-01T00:01:10;102096.40;;;24.85;21.95
73862;BME280;63459;51.456;-0.916;2023-06-01T00:03:35;102098.61;;;25.27;22.01
73862;BME280;63459;51.456;-0.916;2023-06-01T00:06:06;102097.55;;;24.92;21.98
73862;BME280;63459;51.456;-0.916;2023-06-01T00:08:26;102096.63;;;24.82;21.89
73862;BME280;63459;51.456;-0.916;2023-06-01T00:10:51;102104.31;;;24.90;21.84
73862;BME280;63459;51.456;-0.916;2023-06-01T00:13:17;102104.07;;;24.88;21.79
73862;BME280;63459;51.456;-0.916;2023-06-01T00:15:42;102102.47;;;24.88;21.76
73862;BME280;63459;51.456;-0.916;2023-06-01T00:18:07;102096.69;;;25.25;21.77
73862;BME280;63459;51.456;-0.916;2023-06-01T00:20:33;102102.23;;;25.05;21.74
73862;BME280;63459;51.456;-0.916;2023-06-01T00:22:58;102095.35;;;24.80;21.70
73862;BME280;63459;51.456;-0.916;2023-06-01T00:25:23;102093.61;;;24.74;21.70
73862;BME280;63459;51.456;-0.916;2023-06-01T00:27:49;102093.43;;;24.90;21.72
73862;BME280;63459;51.456;-0.916;2023-06-01T00:32:40;102088.60;;;25.19;21.59
73862;BME280;63459;51.456;-0.916;2023-06-01T00:35:06;102083.77;;;24.88;21.59
73862;BME280;63459;51.456;-0.916;2023-06-01T00:37:31;102082.24;;;25.25;21.58
73862;BME280;63459;51.456;-0.916;2023-06-01T00:39:56;102083.58;;;24.95;21.59
73862;BME280;63459;51.456;-0.916;2023-06-01T00:42:21;102083.86;;;25.09;21.68
73862;BME280;63459;51.456;-0.916;2023-06-01T00:44:47;102081.87;;;24.81;21.75
73862;BME280;63459;51.456;-0.916;2023-06-01T00:47:13;102076.44;;;24.38;21.74
73862;BME280;63459;51.456;-0.916;2023-06-01T00:49:38;102077.61;;;24.28;21.72
73862;BME280;63459;51.456;-0.916;2023-06-01T00:52:05;102080.73;;;24.88;21.79
73862;BME280;63459;51.456;-0.916;2023-06-01T00:54:29;102071.58;;;24.56;21.90
73862;BME280;63459;51.456;-0.916;2023-06-01T00:56:54;102074.68;;;24.52;21.94
73862;BME280;63459;51.456;-0.916;2023-06-01T00:59:20;102084.46;;;24.41;22.01
73862;BME280;63459;51.456;-0.916;2023-06-01T01:01:45;102074.96;;;24.16;22.07
73862;BME280;63459;51.456;-0.916;2023-06-01T01:04:10;102074.71;;;23.87;22.14
73862;BME280;63459;51.456;-0.916;2023-06-01T01:06:45;102069.40;;;24.10;22.13
73862;BME280;63459;51.456;-0.916;2023-06-01T01:09:11;102066.40;;;24.57;22.21
73862;BME280;63459;51.456;-0.916;2023-06-01T01:11:29;102070.13;;;24.62;22.22
73862;BME280;63459;51.456;-0.916;2023-06-01T01:13:55;102071.04;;;24.26;22.24
73862;BME280;63459;51.456;-0.916;2023-06-01T01:18:46;102073.55;;;24.58;22.21
73862;BME280;63459;51.456;-0.916;2023-06-01T01:21:10;102075.75;;;24.02;22.14
73862;BME280;63459;51.456;-0.916;2023-06-01T01:23:47;102075.88;;;24.74;22.10
73862;BME280;63459;51.456;-0.916;2023-06-01T01:26:12;102074.86;;;24.81;21.92
73862;BME280;63459;51.456;-0.916;2023-06-01T01:28:32;102081.13;;;24.75;21.98
73862;BME280;63459;51.456;-0.916;2023-06-01T01:30:50;102079.75;;;24.50;22.00
73862;BME280;63459;51.456;-0.916;2023-06-01T01:33:15;102075.11;;;24.72;22.00
73862;BME280;63459;51.456;-0.916;2023-06-01T01:35:41;102074.32;;;24.86;22.02
73862;BME280;63459;51.456;-0.916;2023-06-01T01:38:16;102075.47;;;24.60;22.05
73862;BME280;63459;51.456;-0.916;2023-06-01T01:40:31;102076.57;;;24.38;22.06
73862;BME280;63459;51.456;-0.916;2023-06-01T01:42:56;102077.66;;;24.34;22.09
73862;BME280;63459;51.456;-0.916;2023-06-01T01:45:23;102080.39;;;24.55;22.11
73862;BME280;63459;51.456;-0.916;2023-06-01T01:47:54;102085.03;;;24.72;22.11
73862;BME280;63459;51.456;-0.916;2023-06-01T01:50:14;102079.45;;;24.52;22.10
73862;BME280;63459;51.456;-0.916;2023-06-01T01:52:43;102078.74;;;24.13;22.03
73862;BME280;63459;51.456;-0.916;2023-06-01T01:55:05;102082.79;;;24.60;21.96
73862;BME280;63459;51.456;-0.916;2023-06-01T01:57:29;102075.26;;;24.55;21.94
73862;BME280;63459;51.456;-0.916;2023-06-01T01:59:55;102078.45;;;24.80;21.94
73862;BME280;63459;51.456;-0.916;2023-06-01T02:02:20;102079.18;;;24.38;21.94
73862;BME280;63459;51.456;-0.916;2023-06-01T02:04:45;102074.75;;;24.35;21.96
73862;BME280;63459;51.456;-0.916;2023-06-01T02:07:11;102066.69;;;24.34;21.97
73862;BME280;63459;51.456;-0.916;2023-06-01T02:09:36;102071.81;;;24.77;21.99
73862;BME280;63459;51.456;-0.916;2023-06-01T02:12:01;102066.47;;;24.74;22.02
73862;BME280;63459;51.456;-0.916;2023-06-01T02:14:28;102073.34;;;24.50;22.03
73862;BME280;63459;51.456;-0.916;2023-06-01T02:16:53;102067.29;;;23.99;22.08
73862;BME280;63459;51.456;-0.916;2023-06-01T02:19:19;102069.84;;;24.61;22.10
73862;BME280;63459;51.456;-0.916;2023-06-01T02:21:44;102068.17;;;24.84;22.07
73862;BME280;63459;51.456;-0.916;2023-06-01T02:24:09;102067.70;;;24.04;22.19
73862;BME280;63459;51.456;-0.916;2023-06-01T02:45:59;102060.72;;;24.33;21.92
73862;BME280;63459;51.456;-0.916;2023-06-01T02:48:24;102061.19;;;23.63;21.80
73862;BME280;63459;51.456;-0.916;2023-06-01T02:50:49;102071.95;;;24.07;21.84
73862;BME280;63459;51.456;-0.916;2023-06-01T02:53:15;102066.78;;;23.96;21.91
73862;BME280;63459;51.456;-0.916;2023-06-01T02:55:41;102071.35;;;23.92;21.84
73862;BME280;63459;51.456;-0.916;2023-06-01T03:00:31;102071.42;;;23.65;21.79
73862;BME280;63459;51.456;-0.916;2023-06-01T03:02:57;102077.80;;;23.37;21.85
73862;BME280;63459;51.456;-0.916;2023-06-01T03:05:22;102071.63;;;23.60;21.83
73862;BME280;63459;51.456;-0.916;2023-06-01T03:07:47;102067.53;;;23.62;21.94
73862;BME280;63459;51.456;-0.916;2023-06-01T03:10:12;102072.17;;;23.52;22.01
73862;BME280;63459;51.456;-0.916;2023-06-01T03:12:38;102062.80;;;23.07;22.00
73862;BME280;63459;51.456;-0.916;2023-06-01T03:15:04;102062.43;;;23.29;22.02
73862;BME280;63459;51.456;-0.916;2023-06-01T03:17:28;102056.61;;;23.23;22.10
73862;BME280;63459;51.456;-0.916;2023-06-01T03:19:54;102057.17;;;23.38;22.18
73862;BME280;63459;51.456;-0.916;2023-06-01T03:22:19;102054.52;;;23.83;22.20
73862;BME280;63459;51.456;-0.916;2023-06-01T03:24:44;102057.65;;;23.42;22.16
73862;BME280;63459;51.456;-0.916;2023-06-01T03:27:10;102056.61;;;23.42;22.16
73862;BME280;63459;51.456;-0.916;2023-06-01T03:29:35;102062.49;;;23.92;22.13
73862;BME280;63459;51.456;-0.916;2023-06-01T03:32:00;102064.51;;;23.51;22.11
73862;BME280;63459;51.456;-0.916;2023-06-01T03:34:26;102062.23;;;23.77;22.07
73862;BME280;63459;51.456;-0.916;2023-06-01T03:36:51;102064.90;;;23.44;22.02
73862;BME280;63459;51.456;-0.916;2023-06-01T03:39:16;102064.38;;;23.78;21.94
73862;BME280;63459;51.456;-0.916;2023-06-01T03:41:42;102058.66;;;23.74;21.93
73862;BME280;63459;51.456;-0.916;2023-06-01T03:44:07;102062.65;;;23.50;21.95
73862;BME280;63459;51.456;-0.916;2023-06-01T03:46:33;102049.78;;;23.23;22.04
73862;BME280;63459;51.456;-0.916;2023-06-01T03:49:04;102050.18;;;23.87;22.05
73862;BME280;63459;51.456;-0.916;2023-06-01T03:51:24;102048.56;;;23.47;22.04
73862;BME280;63459;51.456;-0.916;2023-06-01T03:53:49;102051.99;;;23.28;22.01
73862;BME280;63459;51.456;-0.916;2023-06-01T03:56:14;102057.94;;;23.77;21.98
73862;BME280;63459;51.456;-0.916;2023-06-01T03:58:39;102051.10;;;23.80;21.92
73862;BME280;63459;51.456;-0.916;2023-06-01T04:01:04;102048.62;;;23.84;21.90
73862;BME280;63459;51.456;-0.916;2023-06-01T04:03:30;102048.29;;;23.34;21.94
73862;BME280;63459;51.456;-0.916;2023-06-01T04:05:55;102048.88;;;24.00;21.94
73862;BME280;63459;51.456;-0.916;2023-06-01T04:08:20;102047.07;;;23.77;21.94
73862;BME280;63459;51.456;-0.916;2023-06-01T04:10:45;102042.75;;;23.77;21.94
73862;BME280;63459;51.456;-0.916;2023-06-01T04:13:10;102048.36;;;23.56;21.93
73862;BME280;63459;51.456;-0.916;2023-06-01T04:15:36;102052.62;;;23.53;21.94
73862;BME280;63459;51.456;-0.916;2023-06-01T04:18:01;102044.85;;;23.44;22.00
73862;BME280;63459;51.456;-0.916;2023-06-01T04:25:17;102046.59;;;23.80;22.03
73862;BME280;63459;51.456;-0.916;2023-06-01T04:27:43;102045.74;;;23.50;22.03
73862;BME280;63459;51.456;-0.916;2023-06-01T04:30:08;102043.83;;;23.93;22.06
73862;BME280;63459;51.456;-0.916;2023-06-01T04:32:34;102042.52;;;23.36;22.02
73862;BME280;63459;51.456;-0.916;2023-06-01T04:37:23;102052.22;;;23.90;21.88
73862;BME280;63459;51.456;-0.916;2023-06-01T04:39:48;102050.41;;;23.30;21.86
73862;BME280;63459;51.456;-0.916;2023-06-01T04:42:14;102050.72;;;23.56;21.85
73862;BME280;63459;51.456;-0.916;2023-06-01T04:44:39;102048.17;;;23.43;21.80
73862;BME280;63459;51.456;-0.916;2023-06-01T04:47:06;102052.56;;;23.69;21.71
73862;BME280;63459;51.456;-0.916;2023-06-01T04:49:29;102046.12;;;23.73;21.64
73862;BME280;63459;51.456;-0.916;2023-06-01T04:51:55;102042.85;;;23.42;21.75
73862;BME280;63459;51.456;-0.916;2023-06-01T04:54:20;102043.02;;;23.42;21.79
73862;BME280;63459;51.456;-0.916;2023-06-01T04:56:50;102040.17;;;23.64;21.80
73862;BME280;63459;51.456;-0.916;2023-06-01T04:59:11;102038.98;;;23.50;21.76
73862;BME280;63459;51.456;-0.916;2023-06-01T05:01:36;102040.27;;;23.98;21.75
73862;BME280;63459;51.456;-0.916;2023-06-01T05:04:01;102042.25;;;24.28;21.69
73862;BME280;63459;51.456;-0.916;2023-06-01T05:06:27;102043.01;;;23.97;21.57
73862;BME280;63459;51.456;-0.916;2023-06-01T05:08:52;102038.54;;;24.04;21.43
73862;BME280;63459;51.456;-0.916;2023-06-01T05:11:17;102051.68;;;24.22;21.31
73862;BME280;63459;51.456;-0.916;2023-06-01T05:13:43;102055.33;;;23.81;21.36
73862;BME280;63459;51.456;-0.916;2023-06-01T05:18:34;102053.29;;;23.49;21.39
73862;BME280;63459;51.456;-0.916;2023-06-01T05:20:59;102066.69;;;23.40;21.49
73862;BME280;63459;51.456;-0.916;2023-06-01T05:23:25;102054.43;;;23.64;21.70
73862;BME280;63459;51.456;-0.916;2023-06-01T05:25:49;102052.03;;;23.11;21.65
73862;BME280;63459;51.456;-0.916;2023-06-01T05:28:15;102050.11;;;23.87;21.32
73862;BME280;63459;51.456;-0.916;2023-06-01T05:30:40;102053.05;;;23.48;21.48
73862;BME280;63459;51.456;-0.916;2023-06-01T05:33:05;102051.08;;;23.61;21.58
73862;BME280;63459;51.456;-0.916;2023-06-01T05:35:35;102057.96;;;23.52;21.69
73862;BME280;63459;51.456;-0.916;2023-06-01T05:37:55;102056.44;;;24.00;21.68
73862;BME280;63459;51.456;-0.916;2023-06-01T05:40:20;102047.28;;;23.71;21.76
73862;BME280;63459;51.456;-0.916;2023-06-01T05:42:46;102052.74;;;23.95;21.77
73862;BME280;63459;51.456;-0.916;2023-06-01T05:45:11;102049.64;;;23.77;21.77
73862;BME280;63459;51.456;-0.916;2023-06-01T05:47:36;102047.53;;;23.62;21.71
73862;BME280;63459;51.456;-0.916;2023-06-01T05:50:02;102052.53;;;24.14;21.65
73862;BME280;63459;51.456;-0.916;2023-06-01T05:52:27;102065.03;;;23.43;21.69
73862;BME280;63459;51.456;-0.916;2023-06-01T05:54:52;102057.53;;;23.44;21.69
73862;BME280;63459;51.456;-0.916;2023-06-01T05:57:18;102053.12;;;24.06;21.71
73862;BME280;63459;51.456;-0.916;2023-06-01T05:59:43;102052.46;;;24.10;21.72
73862;BME280;63459;51.456;-0.916;2023-06-01T06:02:08;102048.16;;;23.56;21.65
73862;BME280;63459;51.456;-0.916;2023-06-01T06:04:33;102055.04;;;23.70;21.68
73862;BME280;63459;51.456;-0.916;2023-06-01T06:06:59;102053.08;;;23.47;21.67
73862;BME280;63459;51.456;-0.916;2023-06-01T06:09:24;102053.59;;;23.66;21.69
73862;BME280;63459;51.456;-0.916;2023-06-01T06:11:49;102050.58;;;23.38;21.74
73862;BME280;63459;51.456;-0.916;2023-06-01T06:14:15;102050.01;;;22.76;21.72
73862;BME280;63459;51.456;-0.916;2023-06-01T06:16:41;102052.24;;;23.84;21.67
73862;BME280;63459;51.456;-0.916;2023-06-01T06:19:06;102052.01;;;23.64;21.69
73862;BME280;63459;51.456;-0.916;2023-06-01T06:21:31;102055.76;;;23.33;21.68
73862;BME280;63459;51.456;-0.916;2023-06-01T06:23:56;102052.45;;;23.57;21.56
73862;BME280;63459;51.456;-0.916;2023-06-01T06:26:21;102049.78;;;23.81;21.59
73862;BME280;63459;51.456;-0.916;2023-06-01T06:28:47;102052.19;;;23.25;21.48
73862;BME280;63459;51.456;-0.916;2023-06-01T06:31:12;102057.22;;;23.65;21.44
73862;BME280;63459;51.456;-0.916;2023-06-01T06:33:37;102041.96;;;23.48;21.45
73862;BME280;63459;51.456;-0.916;2023-06-01T06:36:03;102036.56;;;23.58;21.36
73862;BME280;63459;51.456;-0.916;2023-06-01T06:38:28;102034.52;;;24.39;21.24
73862;BME280;63459;51.456;-0.916;2023-06-01T06:40:53;102035.69;;;23.99;21.24
73862;BME280;63459;51.456;-0.916;2023-06-01T06:45:43;102038.21;;;24.19;21.11
73862;BME280;63459;51.456;-0.916;2023-06-01T06:50:35;102044.78;;;24.70;20.97
73862;BME280;63459;51.456;-0.916;2023-06-01T06:53:05;102052.37;;;24.39;20.89
73862;BME280;63459;51.456;-0.916;2023-06-01T06:55:30;102045.28;;;24.05;20.73
73862;BME280;63459;51.456;-0.916;2023-06-01T06:57:50;102039.86;;;25.01;20.66
73862;BME280;63459;51.456;-0.916;2023-06-01T07:00:16;102043.61;;;24.96;20.56
73862;BME280;63459;51.456;-0.916;2023-06-01T07:02:41;102038.37;;;24.97;20.44
73862;BME280;63459;51.456;-0.916;2023-06-01T07:05:07;102040.87;;;25.18;20.44
73862;BME280;63459;51.456;-0.916;2023-06-01T07:07:32;102044.83;;;24.46;20.44
73862;BME280;63459;51.456;-0.916;2023-06-01T07:09:57;102039.33;;;24.63;20.50
73862;BME280;63459;51.456;-0.916;2023-06-01T07:12:22;102046.99;;;24.64;20.47
73862;BME280;63459;51.456;-0.916;2023-06-01T07:14:47;102047.25;;;24.53;20.56
73862;BME280;63459;51.456;-0.916;2023-06-01T07:17:12;102050.33;;;24.35;20.61
73862;BME280;63459;51.456;-0.916;2023-06-01T07:19:38;102042.26;;;24.82;20.56
73862;BME280;63459;51.456;-0.916;2023-06-01T07:22:04;102044.49;;;24.41;20.55
73862;BME280;63459;51.456;-0.916;2023-06-01T07:24:29;102046.54;;;24.90;20.57
73862;BME280;63459;51.456;-0.916;2023-06-01T07:26:54;102047.48;;;24.57;20.53
73862;BME280;63459;51.456;-0.916;2023-06-01T07:29:21;102055.41;;;25.30;20.42
73862;BME280;63459;51.456;-0.916;2023-06-01T07:31:45;102049.44;;;25.12;20.28
73862;BME280;63459;51.456;-0.916;2023-06-01T07:34:10;102057.59;;;24.54;20.27
73862;BME280;63459;51.456;-0.916;2023-06-01T07:36:37;102053.49;;;24.86;20.08
73862;BME280;63459;51.456;-0.916;2023-06-01T07:39:01;102057.14;;;24.93;19.99
73862;BME280;63459;51.456;-0.916;2023-06-01T07:41:26;102059.65;;;25.16;19.95
73862;BME280;63459;51.456;-0.916;2023-06-01T07:43:52;102061.26;;;24.96;19.94
73862;BME280;63459;51.456;-0.916;2023-06-01T07:46:17;102066.95;;;25.50;19.88
73862;BME280;63459;51.456;-0.916;2023-06-01T07:48:43;102071.13;;;25.18;19.89
73862;BME280;63459;51.456;-0.916;2023-06-01T07:51:08;102065.21;;;25.44;19.88
73862;BME280;63459;51.456;-0.916;2023-06-01T07:53:33;102064.49;;;25.05;19.91
73862;BME280;63459;51.456;-0.916;2023-06-01T07:55:59;102066.02;;;24.65;19.92
73862;BME280;63459;51.456;-0.916;2023-06-01T07:58:24;102063.49;;;25.37;19.89
73862;BME280;63459;51.456;-0.916;2023-06-01T08:00:49;102066.99;;;25.29;19.84
73862;BME280;63459;51.456;-0.916;2023-06-01T08:03:15;102071.05;;;25.17;19.76
73862;BME280;63459;51.456;-0.916;2023-06-01T08:05:40;102071.26;;;25.27;19.75
73862;BME280;63459;51.456;-0.916;2023-06-01T08:08:05;102067.22;;;25.69;19.61
73862;BME280;63459;51.456;-0.916;2023-06-01T08:12:56;102059.74;;;26.10;19.48
73862;BME280;63459;51.456;-0.916;2023-06-01T08:15:22;102060.04;;;26.23;19.42
73862;BME280;63459;51.456;-0.916;2023-06-01T08:17:47;102063.13;;;25.60;19.15
73862;BME280;63459;51.456;-0.916;2023-06-01T08:20:12;102066.39;;;25.59;19.10
73862;BME280;63459;51.456;-0.916;2023-06-01T08:22:37;102067.68;;;25.82;19.16
73862;BME280;63459;51.456;-0.916;2023-06-01T08:25:04;102073.72;;;25.75;19.18
73862;BME280;63459;51.456;-0.916;2023-06-01T08:27:28;102067.60;;;25.55;19.20
73862;BME280;63459;51.456;-0.916;2023-06-01T08:29:53;102065.33;;;25.76;19.29
73862;BME280;63459;51.456;-0.916;2023-06-01T08:32:19;102061.57;;;25.83;19.24
73862;BME280;63459;51.456;-0.916;2023-06-01T08:34:44;102061.48;;;25.54;19.23
73862;BME280;63459;51.456;-0.916;2023-06-01T08:37:09;102068.87;;;26.20;19.11
73862;BME280;63459;51.456;-0.916;2023-06-01T08:39:34;102058.35;;;25.74;19.21
73862;BME280;63459;51.456;-0.916;2023-06-01T08:42:06;102058.65;;;25.91;19.21
73862;BME280;63459;51.456;-0.916;2023-06-01T08:44:27;102057.56;;;26.03;19.24
73862;BME280;63459;51.456;-0.916;2023-06-01T08:46:51;102056.51;;;25.58;19.29
73862;BME280;63459;51.456;-0.916;2023-06-01T08:49:16;102060.77;;;25.86;19.33
73862;BME280;63459;51.456;-0.916;2023-06-01T08:51:43;102067.35;;;25.08;19.28
73862;BME280;63459;51.456;-0.916;2023-06-01T08:54:09;102067.22;;;25.88;19.28
73862;BME280;63459;51.456;-0.916;2023-06-01T08:56:33;102062.34;;;25.70;19.32
73862;BME280;63459;51.456;-0.916;2023-06-01T08:58:59;102057.26;;;25.97;19.31
73862;BME280;63459;51.456;-0.916;2023-06-01T09:01:24;102052.92;;;25.98;19.21
73862;BME280;63459;51.456;-0.916;2023-06-01T09:03:51;102061.63;;;26.12;19.18
73862;BME280;63459;51.456;-0.916;2023-06-01T09:06:14;102054.61;;;25.90;19.03
73862;BME280;63459;51.456;-0.916;2023-06-01T09:08:40;102049.36;;;26.72;18.90
73862;BME280;63459;51.456;-0.916;2023-06-01T09:11:05;102045.62;;;25.99;18.67
73862;BME280;63459;51.456;-0.916;2023-06-01T09:13:31;102041.48;;;26.97;18.66
73862;BME280;63459;51.456;-0.916;2023-06-01T09:15:56;102046.53;;;26.36;18.49
73862;BME280;63459;51.456;-0.916;2023-06-01T09:18:22;102050.96;;;26.62;18.33
73862;BME280;63459;51.456;-0.916;2023-06-01T09:20:48;102047.22;;;26.49;18.40
73862;BME280;63459;51.456;-0.916;2023-06-01T09:25:37;102049.13;;;27.17;18.34
73862;BME280;63459;51.456;-0.916;2023-06-01T09:28:03;102045.04;;;27.22;18.31
73862;BME280;63459;51.456;-0.916;2023-06-01T09:37:54;102050.55;;;27.08;17.98
73862;BME280;63459;51.456;-0.916;2023-06-01T09:40:15;102049.00;;;27.39;17.90
73862;BME280;63459;51.456;-0.916;2023-06-01T09:42:35;102047.44;;;27.30;17.76
73862;BME280;63459;51.456;-0.916;2023-06-01T09:47:28;102050.65;;;27.47;17.53
73862;BME280;63459;51.456;-0.916;2023-06-01T09:49:51;102050.53;;;28.06;17.45
73862;BME280;63459;51.456;-0.916;2023-06-01T09:52:17;102048.16;;;28.38;17.38
73862;BME280;63459;51.456;-0.916;2023-06-01T09:54:43;102054.35;;;28.11;17.22
73862;BME280;63459;51.456;-0.916;2023-06-01T09:57:09;102052.76;;;27.73;17.13
73862;BME280;63459;51.456;-0.916;2023-06-01T09:59:39;102052.64;;;28.10;17.12
73862;BME280;63459;51.456;-0.916;2023-06-01T10:01:58;102058.54;;;28.02;17.05
73862;BME280;63459;51.456;-0.916;2023-06-01T10:06:51;102051.74;;;28.36;16.87
73862;BME280;63459;51.456;-0.916;2023-06-01T10:09:14;102045.53;;;28.50;16.97
73862;BME280;63459;51.456;-0.916;2023-06-01T10:11:40;102048.87;;;28.45;16.91
73862;BME280;63459;51.456;-0.916;2023-06-01T10:14:05;102046.38;;;28.15;17.02
73862;BME280;63459;51.456;-0.916;2023-06-01T10:16:30;102047.71;;;28.39;17.04
73862;BME280;63459;51.456;-0.916;2023-06-01T10:18:55;102047.32;;;28.03;16.93
73862;BME280;63459;51.456;-0.916;2023-06-01T10:21:21;102052.48;;;28.42;16.99
73862;BME280;63459;51.456;-0.916;2023-06-01T10:23:46;102049.20;;;27.98;17.10
73862;BME280;63459;51.456;-0.916;2023-06-01T10:26:14;102052.88;;;28.01;17.01
73862;BME280;63459;51.456;-0.916;2023-06-01T10:28:38;102051.41;;;28.08;17.02
73862;BME280;63459;51.456;-0.916;2023-06-01T10:35:55;102044.82;;;28.53;16.81
73862;BME280;63459;51.456;-0.916;2023-06-01T10:38:24;102037.35;;;28.17;16.77
73862;BME280;63459;51.456;-0.916;2023-06-01T10:40:46;102037.07;;;28.49;16.77
73862;BME280;63459;51.456;-0.916;2023-06-01T10:48:02;102045.27;;;28.56;16.49
73862;BME280;63459;51.456;-0.916;2023-06-01T10:52:54;102045.75;;;28.56;16.33
73862;BME280;63459;51.456;-0.916;2023-06-01T10:55:21;102046.40;;;28.95;16.36
73862;BME280;63459;51.456;-0.916;2023-06-01T10:57:44;102042.30;;;28.76;16.28
73862;BME280;63459;51.456;-0.916;2023-06-01T11:02:35;102042.19;;;28.40;16.20
73862;BME280;63459;51.456;-0.916;2023-06-01T11:09:50;102036.40;;;29.17;16.23
73862;BME280;63459;51.456;-0.916;2023-06-01T11:19:32;102029.44;;;28.74;16.25
73862;BME280;63459;51.456;-0.916;2023-06-01T11:21:59;102034.17;;;29.31;16.21
73862;BME280;63459;51.456;-0.916;2023-06-01T11:24:23;102025.75;;;29.04;16.18
73862;BME280;63459;51.456;-0.916;2023-06-01T11:26:49;102023.43;;;29.20;15.97
73862;BME280;63459;51.456;-0.916;2023-06-01T11:29:17;102028.70;;;29.66;15.76
73862;BME280;63459;51.456;-0.916;2023-06-01T11:31:41;102031.40;;;29.35;15.76
73862;BME280;63459;51.456;-0.916;2023-06-01T11:34:06;102027.42;;;29.62;15.90
73862;BME280;63459;51.456;-0.916;2023-06-01T11:36:36;102028.36;;;29.43;15.83
73862;BME280;63459;51.456;-0.916;2023-06-01T11:38:56;102022.73;;;30.07;15.57
73862;BME280;63459;51.456;-0.916;2023-06-01T11:41:21;102026.52;;;29.89;15.45
73862;BME280;63459;51.456;-0.916;2023-06-01T11:43:53;102024.54;;;29.61;15.41
73862;BME280;63459;51.456;-0.916;2023-06-01T11:46:11;102016.96;;;29.56;15.42
73862;BME280;63459;51.456;-0.916;2023-06-01T11:48:37;102017.63;;;29.52;15.46
73862;BME280;63459;51.456;-0.916;2023-06-01T11:51:04;102012.82;;;29.41;15.49
73862;BME280;63459;51.456;-0.916;2023-06-01T11:53:29;102014.76;;;29.82;15.45
73862;BME280;63459;51.456;-0.916;2023-06-01T11:55:54;102011.27;;;29.79;15.36
73862;BME280;63459;51.456;-0.916;2023-06-01T11:58:23;102014.10;;;30.30;15.22
73862;BME280;63459;51.456;-0.916;2023-06-01T12:00:43;102017.37;;;30.15;15.38
73862;BME280;63459;51.456;-0.916;2023-06-01T12:03:08;102020.12;;;30.27;15.47
73862;BME280;63459;51.456;-0.916;2023-06-01T12:05:39;102013.56;;;30.16;15.54
73862;BME280;63459;51.456;-0.916;2023-06-01T12:10:25;102009.12;;;30.40;15.38
73862;BME280;63459;51.456;-0.916;2023-06-01T12:15:16;102008.71;;;30.38;15.22
73862;BME280;63459;51.456;-0.916;2023-06-01T12:17:47;102011.95;;;30.73;15.22
73862;BME280;63459;51.456;-0.916;2023-06-01T12:20:07;102009.03;;;30.54;15.24
73862;BME280;63459;51.456;-0.916;2023-06-01T12:24:56;102000.01;;;30.13;15.26
73862;BME280;63459;51.456;-0.916;2023-06-01T12:27:22;102008.07;;;30.25;15.36
73862;BME280;63459;51.456;-0.916;2023-06-01T12:29:47;101998.86;;;30.49;15.28
73862;BME280;63459;51.456;-0.916;2023-06-01T12:32:13;102007.55;;;30.07;15.38
73862;BME280;63459;51.456;-0.916;2023-06-01T12:34:39;101994.94;;;30.26;15.41
73862;BME280;63459;51.456;-0.916;2023-06-01T12:37:12;102002.13;;;29.92;15.52
73862;BME280;63459;51.456;-0.916;2023-06-01T12:39:32;101995.30;;;30.05;15.53
73862;BME280;63459;51.456;-0.916;2023-06-01T12:41:54;101997.28;;;29.87;15.62
73862;BME280;63459;51.456;-0.916;2023-06-01T12:44:21;101987.30;;;30.40;15.49
73862;BME280;63459;51.456;-0.916;2023-06-01T12:46:47;101997.43;;;29.78;15.70
73862;BME280;63459;51.456;-0.916;2023-06-01T12:51:37;101996.13;;;29.41;15.92
73862;BME280;63459;51.456;-0.916;2023-06-01T12:54:02;102000.27;;;29.05;16.06
73862;BME280;63459;51.456;-0.916;2023-06-01T12:56:28;101985.78;;;29.53;16.16
73862;BME280;63459;51.456;-0.916;2023-06-01T12:58:53;101984.02;;;29.15;16.29
73862;BME280;63459;51.456;-0.916;2023-06-01T13:01:18;101978.18;;;29.21;16.41
73862;BME280;63459;51.456;-0.916;2023-06-01T13:03:43;101973.21;;;28.84;16.50
73862;BME280;63459;51.456;-0.916;2023-06-01T13:06:09;101970.47;;;29.07;16.43
73862;BME280;63459;51.456;-0.916;2023-06-01T13:08:34;101969.75;;;29.52;16.72
73862;BME280;63459;51.456;-0.916;2023-06-01T13:11:01;101979.54;;;28.97;16.52
73862;BME280;63459;51.456;-0.916;2023-06-01T13:13:26;101976.51;;;29.00;16.55
73862;BME280;63459;51.456;-0.916;2023-06-01T13:15:51;101971.83;;;28.50;16.51
73862;BME280;63459;51.456;-0.916;2023-06-01T13:18:16;101963.13;;;28.97;16.56
73862;BME280;63459;51.456;-0.916;2023-06-01T13:20:42;101992.58;;;28.50;16.67
73862;BME280;63459;51.456;-0.916;2023-06-01T13:23:07;101970.28;;;28.86;16.68
73862;BME280;63459;51.456;-0.916;2023-06-01T13:25:32;101967.40;;;29.49;16.63
73862;BME280;63459;51.456;-0.916;2023-06-01T13:27:57;101963.98;;;28.94;16.63
73862;BME280;63459;51.456;-0.916;2023-06-01T13:30:23;101961.11;;;28.74;16.62
73862;BME280;63459;51.456;-0.916;2023-06-01T13:32:48;101959.53;;;28.60;16.58
73862;BME280;63459;51.456;-0.916;2023-06-01T13:35:13;101960.24;;;29.02;16.61
73862;BME280;63459;51.456;-0.916;2023-06-01T13:37:39;101947.37;;;29.11;16.64
73862;BME280;63459;51.456;-0.916;2023-06-01T13:40:05;101945.10;;;29.23;16.51
73862;BME280;63459;51.456;-0.916;2023-06-01T13:42:29;101951.87;;;29.56;16.56
73862;BME280;63459;51.456;-0.916;2023-06-01T13:44:55;101952.19;;;29.38;16.61
73862;BME280;63459;51.456;-0.916;2023-06-01T13:47:20;101955.78;;;29.44;16.52
73862;BME280;63459;51.456;-0.916;2023-06-01T13:49:46;101955.70;;;29.51;16.61
73862;BME280;63459;51.456;-0.916;2023-06-01T13:52:11;101946.08;;;29.42;16.43
73862;BME280;63459;51.456;-0.916;2023-06-01T13:54:37;101943.69;;;29.39;16.42
73862;BME280;63459;51.456;-0.916;2023-06-01T13:57:03;101947.86;;;29.44;16.40
73862;BME280;63459;51.456;-0.916;2023-06-01T13:59:30;101941.51;;;29.44;16.34
73862;BME280;63459;51.456;-0.916;2023-06-01T14:01:53;101941.65;;;29.53;16.25
73862;BME280;63459;51.456;-0.916;2023-06-01T14:04:19;101934.83;;;29.80;16.35